Time;durP1;ratioP1;P1;durP2;ratioP2;P2;SDS_P1;SDS_P2;PMS_P1;PMS_P2;Temp;Humidity;BMP_temperature;BMP_pressure;BME280_temperature;BME280_humidity;BME280_pressure;Samples;Min_cycle;Max_cycle;Signal;HPM_P1;HPM_P2
2023/09/30 00:01:59;;;;;;;12.50;3.07;;;;;;;;;;5075332;28;21016;-82
2023/09/30 00:04:28;;;;;;;12.50;2.97;;;;;;;;;;5075288;28;20407;-81
2023/09/30 00:06:54;;;;;;;11.50;2.43;;;;;;;;;;5068602;28;20432;-81
2023/09/30 00:09:20;;;;;;;20.43;3.00;;;;;;;;;;5073108;28;20844;-82
2023/09/30 00:11:46;;;;;;;9.67;3.00;;;;;;;;;;5075758;28;20482;-87
2023/09/30 00:14:12;;;;;;;9.30;2.20;;;;;;;;;;5069790;28;20200;-82
2023/09/30 00:16:38;;;;;;;9.33;2.30;;;;;;;;;;5067126;28;20433;-84
2023/09/30 00:19:04;;;;;;;9.07;3.07;;;;;;;;;;5074982;28;20899;-82
2023/09/30 00:21:30;;;;;;;9.43;2.83;;;;;;;;;;5075076;28;20422;-80
2023/09/30 00:23:56;;;;;;;18.30;2.87;;;;;;;;;;5074994;28;20415;-80
2023/09/30 00:26:22;;;;;;;15.17;4.20;;;;;;;;;;5068051;28;20473;-82
2023/09/30 00:28:48;;;;;;;10.17;3.37;;;;;;;;;;5055159;28;20441;-80
2023/09/30 00:31:14;;;;;;;11.90;2.60;;;;;;;;;;5054617;28;20521;-80
2023/09/30 00:33:40;;;;;;;6.33;1.60;;;;;;;;;;5062903;28;20428;-80
2023/09/30 00:36:10;;;;;;;10.53;2.07;;;;;;;;;;5078873;28;20516;-80
2023/09/30 00:38:36;;;;;;;12.90;3.17;;;;;;;;;;5058126;28;20434;-80
2023/09/30 00:41:02;;;;;;;12.70;3.60;;;;;;;;;;5060366;28;20427;-80
2023/09/30 00:43:28;;;;;;;9.97;3.37;;;;;;;;;;5074574;28;20759;-80
2023/09/30 00:46:01;;;;;;;13.83;2.33;;;;;;;;;;5074462;28;20177;-80
2023/09/30 00:48:27;;;;;;;13.13;2.73;;;;;;;;;;5074547;28;20168;-82
2023/09/30 00:50:54;;;;;;;10.27;2.77;;;;;;;;;;5074433;28;20471;-80
2023/09/30 00:53:20;;;;;;;5.50;1.50;;;;;;;;;;5074643;28;20502;-80
2023/09/30 00:55:46;;;;;;;12.33;2.70;;;;;;;;;;5074308;28;20913;-79
2023/09/30 00:58:12;;;;;;;9.83;1.87;;;;;;;;;;5074464;28;20973;-81
2023/09/30 01:00:38;;;;;;;13.27;3.07;;;;;;;;;;5074396;28;20423;-80
2023/09/30 01:03:04;;;;;;;9.10;2.00;;;;;;;;;;5073867;28;20476;-80
2023/09/30 01:05:31;;;;;;;9.80;1.60;;;;;;;;;;5074278;28;20938;-85
2023/09/30 01:07:56;;;;;;;15.50;4.27;;;;;;;;;;5074122;28;20738;-81
2023/09/30 01:10:22;;;;;;;8.07;2.13;;;;;;;;;;5073027;28;20577;-80
2023/09/30 01:12:48;;;;;;;13.33;2.33;;;;;;;;;;5073937;28;20902;-79
2023/09/30 01:15:14;;;;;;;8.57;1.40;;;;;;;;;;5073735;28;20419;-82
2023/09/30 01:17:40;;;;;;;7.90;2.57;;;;;;;;;;5073604;28;20177;-80
2023/09/30 01:20:08;;;;;;;11.10;2.17;;;;;;;;;;5073997;28;20177;-84
2023/09/30 01:22:34;;;;;;;11.63;2.43;;;;;;;;;;5073966;28;20945;-79
2023/09/30 01:25:00;;;;;;;14.33;2.50;;;;;;;;;;5073668;28;20461;-79
2023/09/30 01:27:26;;;;;;;6.83;2.50;;;;;;;;;;5073685;28;20422;-79
2023/09/30 01:29:52;;;;;;;9.00;2.13;;;;;;;;;;5073729;28;20192;-81
2023/09/30 01:32:18;;;;;;;6.90;2.67;;;;;;;;;;5073158;28;20471;-88
2023/09/30 01:34:44;;;;;;;7.63;2.20;;;;;;;;;;5073866;28;20433;-80
2023/09/30 01:37:10;;;;;;;8.57;2.33;;;;;;;;;;5073665;28;20903;-80
2023/09/30 01:39:36;;;;;;;8.80;2.03;;;;;;;;;;5073023;28;20441;-80
2023/09/30 01:42:02;;;;;;;15.77;3.50;;;;;;;;;;5068379;28;20576;-84
2023/09/30 01:44:28;;;;;;;12.13;2.10;;;;;;;;;;5094005;28;20417;-86
2023/09/30 01:46:54;;;;;;;15.03;3.33;;;;;;;;;;5093836;28;20673;-86
2023/09/30 01:49:20;;;;;;;9.80;3.10;;;;;;;;;;5094218;28;20410;-79
2023/09/30 01:51:46;;;;;;;8.90;2.53;;;;;;;;;;5094028;28;20460;-79
2023/09/30 01:54:14;;;;;;;11.50;2.33;;;;;;;;;;5094115;28;20409;-91
2023/09/30 01:56:40;;;;;;;11.23;2.00;;;;;;;;;;5093848;28;20412;-79
2023/09/30 01:59:06;;;;;;;9.27;2.17;;;;;;;;;;5094051;28;20414;-82
2023/09/30 02:01:32;;;;;;;8.47;1.93;;;;;;;;;;5093532;28;20781;-79
2023/09/30 02:03:58;;;;;;;10.33;1.90;;;;;;;;;;5093838;28;20175;-79
2023/09/30 02:06:24;;;;;;;10.43;3.80;;;;;;;;;;5093910;28;20457;-79
2023/09/30 02:08:50;;;;;;;6.23;2.60;;;;;;;;;;5093565;28;20259;-81
2023/09/30 02:11:17;;;;;;;10.67;2.07;;;;;;;;;;5093507;28;20234;-80
2023/09/30 02:13:44;;;;;;;15.73;2.60;;;;;;;;;;5093550;28;20427;-86
2023/09/30 02:16:16;;;;;;;16.37;3.37;;;;;;;;;;5093259;28;20508;-79
2023/09/30 02:18:44;;;;;;;10.50;2.83;;;;;;;;;;5093561;28;20958;-80
2023/09/30 02:21:10;;;;;;;12.60;4.17;;;;;;;;;;5093507;28;20409;-81
2023/09/30 02:23:36;;;;;;;8.50;2.17;;;;;;;;;;5093530;28;20864;-81
2023/09/30 02:26:03;;;;;;;11.90;2.43;;;;;;;;;;5093378;28;20779;-83
2023/09/30 02:28:32;;;;;;;11.73;3.40;;;;;;;;;;5089821;28;20169;-88
2023/09/30 02:30:57;;;;;;;12.87;2.77;;;;;;;;;;5066954;28;20528;-88
2023/09/30 02:33:26;;;;;;;15.47;4.07;;;;;;;;;;5062187;28;20415;-86
2023/09/30 02:35:52;;;;;;;11.27;2.23;;;;;;;;;;5059769;28;20416;-87
2023/09/30 02:38:18;;;;;;;9.30;1.80;;;;;;;;;;5063241;28;20421;-84
2023/09/30 02:40:46;;;;;;;9.70;3.00;;;;;;;;;;5064208;28;20416;-89
2023/09/30 02:43:13;;;;;;;9.93;3.23;;;;;;;;;;5058972;28;20415;-85
2023/09/30 02:45:39;;;;;;;9.30;1.97;;;;;;;;;;5065623;28;20424;-84
2023/09/30 02:48:06;;;;;;;11.17;1.57;;;;;;;;;;5062073;28;21079;-86
2023/09/30 02:50:32;;;;;;;8.03;2.10;;;;;;;;;;5062101;28;20196;-86
2023/09/30 02:52:58;;;;;;;15.20;2.90;;;;;;;;;;5062846;28;20416;-84
2023/09/30 02:55:24;;;;;;;10.17;3.07;;;;;;;;;;5069386;28;20469;-81
2023/09/30 02:57:50;;;;;;;10.43;2.40;;;;;;;;;;5064197;28;20411;-81
2023/09/30 03:00:32;;;;;;;8.20;2.33;;;;;;;;;;5060563;28;20417;-82
2023/09/30 03:02:58;;;;;;;10.13;2.73;;;;;;;;;;5063429;28;20692;-81
2023/09/30 03:05:24;;;;;;;10.03;2.90;;;;;;;;;;5062677;28;20414;-81
2023/09/30 03:07:50;;;;;;;11.17;3.50;;;;;;;;;;5061103;28;20440;-82
2023/09/30 03:10:20;;;;;;;9.70;2.90;;;;;;;;;;5065495;28;20447;-81
2023/09/30 03:12:48;;;;;;;11.00;2.50;;;;;;;;;;5062870;28;20463;-83
2023/09/30 03:15:15;;;;;;;13.90;2.90;;;;;;;;;;5063964;28;20499;-86
2023/09/30 03:17:41;;;;;;;8.80;3.00;;;;;;;;;;5061973;28;20430;-82
2023/09/30 03:20:10;;;;;;;14.37;4.00;;;;;;;;;;5065892;28;20400;-82
2023/09/30 03:22:36;;;;;;;16.23;3.67;;;;;;;;;;5072779;28;20428;-81
2023/09/30 03:25:03;;;;;;;12.30;3.40;;;;;;;;;;5072558;28;20439;-82
2023/09/30 03:27:30;;;;;;;13.00;3.80;;;;;;;;;;5072717;28;20401;-83
2023/09/30 03:29:56;;;;;;;9.23;3.60;;;;;;;;;;5072666;28;20440;-86
2023/09/30 03:32:22;;;;;;;14.77;4.30;;;;;;;;;;5072259;28;20501;-81
2023/09/30 03:34:49;;;;;;;12.67;3.70;;;;;;;;;;5072748;28;20429;-83
2023/09/30 03:37:15;;;;;;;8.57;2.97;;;;;;;;;;5071481;28;20819;-83
2023/09/30 03:39:41;;;;;;;11.50;3.67;;;;;;;;;;5072872;28;20501;-81
2023/09/30 03:42:11;;;;;;;9.80;3.73;;;;;;;;;;5078995;28;20185;-82
2023/09/30 03:44:37;;;;;;;8.57;3.57;;;;;;;;;;5074395;28;20414;-84
2023/09/30 03:47:03;;;;;;;8.20;3.60;;;;;;;;;;5072693;28;20401;-83
2023/09/30 03:49:29;;;;;;;14.40;3.90;;;;;;;;;;5072951;28;20474;-89
2023/09/30 03:51:55;;;;;;;16.83;5.70;;;;;;;;;;5072740;28;20473;-88
2023/09/30 03:54:21;;;;;;;15.00;3.90;;;;;;;;;;5072783;28;20399;-88
2023/09/30 03:56:47;;;;;;;12.00;3.33;;;;;;;;;;5072492;28;20200;-80
2023/09/30 03:59:13;;;;;;;15.90;3.17;;;;;;;;;;5072491;28;20409;-85
2023/09/30 04:01:40;;;;;;;10.33;3.60;;;;;;;;;;5073144;28;20486;-80
2023/09/30 04:04:09;;;;;;;18.40;5.23;;;;;;;;;;5076194;28;20418;-83
2023/09/30 04:06:38;;;;;;;8.83;2.97;;;;;;;;;;5076078;28;20424;-89
2023/09/30 04:09:09;;;;;;;7.67;2.97;;;;;;;;;;5076047;28;20410;-81
2023/09/30 04:11:35;;;;;;;15.60;3.73;;;;;;;;;;5076070;28;20839;-86
2023/09/30 04:14:01;;;;;;;11.17;3.10;;;;;;;;;;5075711;28;20420;-82
2023/09/30 04:16:29;;;;;;;12.37;3.90;;;;;;;;;;5075213;28;20912;-82
2023/09/30 04:18:55;;;;;;;12.83;4.10;;;;;;;;;;5075513;28;20416;-85
2023/09/30 04:21:21;;;;;;;15.90;3.70;;;;;;;;;;5075505;28;20414;-84
2023/09/30 04:23:47;;;;;;;14.30;4.10;;;;;;;;;;5075419;28;20461;-84
2023/09/30 04:26:13;;;;;;;7.27;3.30;;;;;;;;;;5075240;28;20419;-83
2023/09/30 04:28:39;;;;;;;19.13;5.20;;;;;;;;;;5075312;28;20413;-80
2023/09/30 04:31:07;;;;;;;11.40;3.97;;;;;;;;;;5074819;28;20463;-80
2023/09/30 04:33:34;;;;;;;12.07;3.07;;;;;;;;;;5075265;28;20174;-80
2023/09/30 04:36:01;;;;;;;16.80;4.40;;;;;;;;;;5075167;28;20433;-81
2023/09/30 04:38:27;;;;;;;11.80;4.20;;;;;;;;;;5075174;28;20415;-80
2023/09/30 04:40:54;;;;;;;9.00;3.87;;;;;;;;;;5075128;28;20781;-79
2023/09/30 04:43:20;;;;;;;12.63;3.70;;;;;;;;;;5075102;28;20180;-79
2023/09/30 04:45:47;;;;;;;7.93;3.10;;;;;;;;;;5074770;28;20768;-81
2023/09/30 04:48:13;;;;;;;10.67;3.83;;;;;;;;;;5075003;28;20418;-80
2023/09/30 04:50:42;;;;;;;18.67;4.60;;;;;;;;;;5074932;28;20453;-85
2023/09/30 04:53:08;;;;;;;11.57;3.57;;;;;;;;;;5074930;28;20421;-80
2023/09/30 04:55:34;;;;;;;17.10;4.43;;;;;;;;;;5074846;28;20451;-81
2023/09/30 04:58:00;;;;;;;13.40;3.43;;;;;;;;;;5074814;28;20415;-80
2023/09/30 05:00:30;;;;;;;13.33;3.40;;;;;;;;;;5074506;28;20412;-79
2023/09/30 05:02:56;;;;;;;11.30;3.17;;;;;;;;;;5074949;28;20628;-85
2023/09/30 05:05:22;;;;;;;11.37;3.70;;;;;;;;;;5074822;28;20411;-82
2023/09/30 05:07:48;;;;;;;10.60;3.77;;;;;;;;;;5074822;28;20458;-85
2023/09/30 05:10:16;;;;;;;12.00;3.90;;;;;;;;;;5074524;28;20458;-81
2023/09/30 05:12:47;;;;;;;10.20;3.20;;;;;;;;;;5074401;28;20942;-82
2023/09/30 05:15:15;;;;;;;8.23;3.67;;;;;;;;;;5073889;28;20402;-83
2023/09/30 05:17:43;;;;;;;17.57;4.37;;;;;;;;;;5074479;28;20411;-80
2023/09/30 05:20:10;;;;;;;13.40;3.90;;;;;;;;;;5074633;28;20409;-82
2023/09/30 05:22:36;;;;;;;9.83;2.43;;;;;;;;;;5074039;28;20976;-80
2023/09/30 05:25:02;;;;;;;15.80;3.83;;;;;;;;;;5074301;28;20414;-80
2023/09/30 05:27:28;;;;;;;10.80;2.57;;;;;;;;;;5074258;28;20407;-81
2023/09/30 05:29:55;;;;;;;9.67;2.90;;;;;;;;;;5074120;28;20407;-80
2023/09/30 05:32:21;;;;;;;9.63;3.37;;;;;;;;;;5073682;28;20560;-81
2023/09/30 05:34:47;;;;;;;12.63;2.90;;;;;;;;;;5074023;28;20845;-80
2023/09/30 05:37:13;;;;;;;12.47;3.20;;;;;;;;;;5073921;28;20474;-83
2023/09/30 05:39:40;;;;;;;7.83;2.40;;;;;;;;;;5073893;28;20413;-80
2023/09/30 05:42:06;;;;;;;10.17;2.60;;;;;;;;;;5073946;28;20252;-84
2023/09/30 05:44:32;;;;;;;9.60;3.63;;;;;;;;;;5073818;28;20418;-81
2023/09/30 05:46:59;;;;;;;9.90;3.10;;;;;;;;;;5073441;28;20407;-85
2023/09/30 05:49:25;;;;;;;12.57;2.80;;;;;;;;;;5073765;28;20411;-81
2023/09/30 05:51:51;;;;;;;10.40;3.97;;;;;;;;;;5073885;28;20469;-82
2023/09/30 05:54:17;;;;;;;8.73;3.13;;;;;;;;;;5074040;28;20406;-87
2023/09/30 05:56:43;;;;;;;11.77;4.70;;;;;;;;;;5074017;28;20418;-85
2023/09/30 05:59:09;;;;;;;7.33;3.20;;;;;;;;;;5074015;28;20410;-85
2023/09/30 06:01:35;;;;;;;8.50;2.63;;;;;;;;;;5073311;28;20448;-81
2023/09/30 06:04:02;;;;;;;10.30;3.70;;;;;;;;;;5073518;28;20413;-81
2023/09/30 06:06:29;;;;;;;12.10;3.60;;;;;;;;;;5073706;28;20414;-81
2023/09/30 06:08:58;;;;;;;7.77;3.20;;;;;;;;;;5073556;28;20977;-83
2023/09/30 06:11:30;;;;;;;11.60;3.40;;;;;;;;;;5073198;28;20477;-80
2023/09/30 06:13:58;;;;;;;13.20;3.40;;;;;;;;;;5073600;28;20405;-80
2023/09/30 06:16:26;;;;;;;13.20;3.53;;;;;;;;;;5073085;28;20423;-84
2023/09/30 06:18:52;;;;;;;9.63;2.67;;;;;;;;;;5073391;28;20502;-82
2023/09/30 06:21:20;;;;;;;13.73;4.13;;;;;;;;;;5073316;28;20449;-84
2023/09/30 06:23:46;;;;;;;9.10;3.60;;;;;;;;;;5073316;28;20544;-82
2023/09/30 06:26:12;;;;;;;14.07;3.57;;;;;;;;;;5073191;28;20425;-83
2023/09/30 06:28:40;;;;;;;13.80;2.90;;;;;;;;;;5073336;28;20891;-88
2023/09/30 06:31:10;;;;;;;9.97;2.33;;;;;;;;;;5073009;28;20482;-86
2023/09/30 06:33:38;;;;;;;9.20;3.00;;;;;;;;;;5072951;28;20476;-80
2023/09/30 06:36:08;;;;;;;13.17;4.30;;;;;;;;;;5073212;28;20418;-82
2023/09/30 06:38:34;;;;;;;8.10;3.30;;;;;;;;;;5072975;28;20504;-79
2023/09/30 06:41:01;;;;;;;12.33;3.80;;;;;;;;;;5073079;28;20419;-79
2023/09/30 06:43:27;;;;;;;11.47;3.93;;;;;;;;;;5073060;28;20250;-80
2023/09/30 06:45:54;;;;;;;14.07;2.90;;;;;;;;;;5072538;28;20443;-79
2023/09/30 06:48:20;;;;;;;13.53;3.63;;;;;;;;;;5072940;28;20570;-80
2023/09/30 06:50:48;;;;;;;10.80;4.17;;;;;;;;;;5072726;28;20450;-80
2023/09/30 06:53:15;;;;;;;13.67;3.13;;;;;;;;;;5072921;28;20707;-80
2023/09/30 06:55:41;;;;;;;10.30;2.80;;;;;;;;;;5072855;28;20487;-79
2023/09/30 06:58:08;;;;;;;10.37;2.97;;;;;;;;;;5072768;28;20449;-80
2023/09/30 07:00:35;;;;;;;12.03;2.03;;;;;;;;;;5072539;28;20456;-81
2023/09/30 07:03:01;;;;;;;13.40;2.63;;;;;;;;;;5072855;28;20413;-82
2023/09/30 07:05:28;;;;;;;9.80;2.77;;;;;;;;;;5072783;28;20834;-83
2023/09/30 07:07:54;;;;;;;9.90;2.07;;;;;;;;;;5072818;28;20453;-81
2023/09/30 07:10:20;;;;;;;11.53;2.37;;;;;;;;;;5072470;28;20457;-81
2023/09/30 07:12:46;;;;;;;8.00;2.33;;;;;;;;;;5072750;28;20419;-84
2023/09/30 07:15:13;;;;;;;6.93;2.80;;;;;;;;;;5072434;28;20480;-83
2023/09/30 07:17:39;;;;;;;6.57;2.20;;;;;;;;;;5072812;28;20224;-86
2023/09/30 07:20:06;;;;;;;9.80;2.60;;;;;;;;;;5072703;28;20431;-87
2023/09/30 07:22:32;;;;;;;11.07;3.30;;;;;;;;;;5072638;28;20515;-83
2023/09/30 07:24:58;;;;;;;8.43;3.03;;;;;;;;;;5072680;28;20408;-84
2023/09/30 07:27:24;;;;;;;5.23;2.13;;;;;;;;;;5072765;28;20412;-87
2023/09/30 07:29:50;;;;;;;11.17;2.80;;;;;;;;;;5072522;28;20405;-87
2023/09/30 07:32:16;;;;;;;10.60;3.10;;;;;;;;;;5072560;28;20465;-86
2023/09/30 07:34:44;;;;;;;6.80;2.87;;;;;;;;;;5072551;28;20792;-85
2023/09/30 07:37:10;;;;;;;8.33;2.67;;;;;;;;;;5074717;28;20587;-86
2023/09/30 07:39:36;;;;;;;10.33;2.90;;;;;;;;;;5076975;28;20409;-91
2023/09/30 07:42:02;;;;;;;8.97;2.60;;;;;;;;;;5076003;28;20840;-88
2023/09/30 07:44:28;;;;;;;7.53;2.20;;;;;;;;;;5076614;28;20506;-91
2023/09/30 07:46:54;;;;;;;10.90;4.07;;;;;;;;;;5076219;28;20907;-86
2023/09/30 07:49:20;;;;;;;9.77;3.27;;;;;;;;;;5076429;28;20173;-88
2023/09/30 07:51:46;;;;;;;9.70;2.77;;;;;;;;;;5076476;28;20265;-88
2023/09/30 07:54:12;;;;;;;7.93;2.10;;;;;;;;;;5076341;28;20836;-90
2023/09/30 07:56:38;;;;;;;10.30;3.73;;;;;;;;;;5076463;28;20414;-83
2023/09/30 07:59:05;;;;;;;9.43;1.93;;;;;;;;;;5075969;28;20407;-82
2023/09/30 08:01:31;;;;;;;8.30;2.80;;;;;;;;;;5075510;28;20530;-81
2023/09/30 08:03:57;;;;;;;8.53;2.17;;;;;;;;;;5075847;28;20814;-84
2023/09/30 08:06:23;;;;;;;8.00;1.90;;;;;;;;;;5075971;28;20415;-82
2023/09/30 08:08:49;;;;;;;10.30;2.47;;;;;;;;;;5075801;28;20461;-83
2023/09/30 08:11:15;;;;;;;6.50;2.40;;;;;;;;;;5075440;28;20481;-81
2023/09/30 08:13:41;;;;;;;6.00;2.17;;;;;;;;;;5075714;28;20415;-83
2023/09/30 08:16:07;;;;;;;7.37;2.57;;;;;;;;;;5075306;28;20851;-85
2023/09/30 08:18:33;;;;;;;7.67;1.87;;;;;;;;;;5075591;28;20490;-85
2023/09/30 08:20:59;;;;;;;8.73;2.90;;;;;;;;;;5075550;28;20176;-81
2023/09/30 08:23:25;;;;;;;7.50;2.57;;;;;;;;;;5075372;28;20169;-82
2023/09/30 08:25:51;;;;;;;11.47;3.13;;;;;;;;;;5075317;28;20173;-81
2023/09/30 08:28:17;;;;;;;5.83;2.30;;;;;;;;;;5075355;28;20239;-80
2023/09/30 08:30:42;;;;;;;7.43;1.50;;;;;;;;;;5074872;28;20231;-80
2023/09/30 08:33:08;;;;;;;7.63;2.73;;;;;;;;;;5075241;28;20434;-80
2023/09/30 08:35:40;;;;;;;10.17;2.60;;;;;;;;;;5075185;28;20196;-83
2023/09/30 08:38:06;;;;;;;9.83;2.47;;;;;;;;;;5071427;28;20177;-82
2023/09/30 08:40:32;;;;;;;4.40;1.37;;;;;;;;;;5093374;28;20419;-81
2023/09/30 08:42:59;;;;;;;8.53;2.83;;;;;;;;;;5089886;28;20222;-79
2023/09/30 08:45:29;;;;;;;6.97;1.90;;;;;;;;;;5074364;28;20419;-80
2023/09/30 08:47:55;;;;;;;5.60;2.07;;;;;;;;;;5074382;28;20403;-79
2023/09/30 08:50:21;;;;;;;7.17;1.87;;;;;;;;;;5074399;28;20765;-80
2023/09/30 08:52:48;;;;;;;6.17;2.00;;;;;;;;;;5074530;28;20625;-80
2023/09/30 08:55:14;;;;;;;6.37;1.90;;;;;;;;;;5074609;28;20550;-80
2023/09/30 08:57:43;;;;;;;8.80;1.90;;;;;;;;;;5084249;28;20415;-79
2023/09/30 09:00:14;;;;;;;10.63;2.73;;;;;;;;;;5069053;28;20887;-80
2023/09/30 09:02:40;;;;;;;7.83;2.27;;;;;;;;;;5072044;28;20431;-80
2023/09/30 09:05:06;;;;;;;5.00;1.50;;;;;;;;;;5072696;28;20422;-79
2023/09/30 09:07:33;;;;;;;9.50;1.90;;;;;;;;;;5074123;28;20481;-79
2023/09/30 09:10:09;;;;;;;9.10;1.00;;;;;;;;;;5073926;28;20451;-79
2023/09/30 09:12:41;;;;;;;7.37;1.77;;;;;;;;;;5073874;28;21043;-80
2023/09/30 09:15:10;;;;;;;5.80;1.10;;;;;;;;;;5073631;28;20443;-79
2023/09/30 09:17:41;;;;;;;6.50;1.23;;;;;;;;;;5074044;28;20407;-80
2023/09/30 09:20:09;;;;;;;9.80;2.47;;;;;;;;;;5073952;28;20403;-77
2023/09/30 09:22:38;;;;;;;8.70;1.70;;;;;;;;;;5073533;28;20431;-77
2023/09/30 09:25:04;;;;;;;6.20;1.90;;;;;;;;;;5074208;28;20536;-77
2023/09/30 09:27:34;;;;;;;6.53;1.60;;;;;;;;;;5073730;28;20548;-77
2023/09/30 09:30:14;;;;;;;8.73;1.90;;;;;;;;;;5073682;28;20399;-79
2023/09/30 09:32:40;;;;;;;6.03;1.33;;;;;;;;;;5073295;28;20430;-80
2023/09/30 09:35:07;;;;;;;7.93;1.87;;;;;;;;;;5073986;28;20953;-79
2023/09/30 09:37:33;;;;;;;5.50;2.03;;;;;;;;;;5074050;28;20215;-80
2023/09/30 09:39:59;;;;;;;5.73;1.67;;;;;;;;;;5073628;28;20438;-79
2023/09/30 09:42:26;;;;;;;5.20;1.10;;;;;;;;;;5064289;28;20645;-79
2023/09/30 09:45:02;;;;;;;12.20;2.03;;;;;;;;;;5069434;28;20185;-80
2023/09/30 09:47:29;;;;;;;7.40;1.23;;;;;;;;;;5080591;28;20505;-80
2023/09/30 09:49:57;;;;;;;7.27;1.60;;;;;;;;;;5093614;28;20501;-80
2023/09/30 09:52:24;;;;;;;7.47;2.07;;;;;;;;;;5074834;28;20963;-79
2023/09/30 09:54:50;;;;;;;6.13;1.70;;;;;;;;;;5073321;28;20423;-79
2023/09/30 09:57:17;;;;;;;8.47;1.50;;;;;;;;;;5073378;28;20899;-79
2023/09/30 09:59:46;;;;;;;6.70;1.60;;;;;;;;;;5072491;28;20845;-79
2023/09/30 10:02:16;;;;;;;8.40;1.50;;;;;;;;;;5088793;28;20419;-79
2023/09/30 10:04:45;;;;;;;7.40;1.20;;;;;;;;;;5073088;28;20407;-78
2023/09/30 10:07:14;;;;;;;5.97;1.87;;;;;;;;;;5073089;28;20442;-79
2023/09/30 10:09:41;;;;;;;8.70;1.60;;;;;;;;;;5072816;28;20411;-78
2023/09/30 10:12:08;;;;;;;7.53;1.30;;;;;;;;;;5072943;28;20471;-78
2023/09/30 10:14:44;;;;;;;8.10;1.33;;;;;;;;;;5072549;28;20478;-79
2023/09/30 10:17:10;;;;;;;8.40;1.43;;;;;;;;;;5073115;28;20457;-80
2023/09/30 10:19:36;;;;;;;5.13;1.60;;;;;;;;;;5072811;28;20453;-80
2023/09/30 10:22:17;;;;;;;9.43;1.30;;;;;;;;;;5072764;28;20821;-79
2023/09/30 10:24:46;;;;;;;6.63;1.17;;;;;;;;;;5072882;28;20545;-79
2023/09/30 10:27:24;;;;;;;5.07;0.90;;;;;;;;;;5072847;28;20407;-81
2023/09/30 10:30:08;;;;;;;5.60;1.10;;;;;;;;;;5072489;28;20411;-81
2023/09/30 10:32:53;;;;;;;9.67;1.80;;;;;;;;;;5072618;28;20462;-80
2023/09/30 10:35:19;;;;;;;6.60;1.83;;;;;;;;;;5085247;28;20398;-80
2023/09/30 10:37:45;;;;;;;6.67;1.10;;;;;;;;;;5092625;28;20418;-79
2023/09/30 10:40:26;;;;;;;7.63;1.73;;;;;;;;;;5084451;28;20415;-80
2023/09/30 10:42:56;;;;;;;9.47;1.43;;;;;;;;;;5072532;28;20760;-78
2023/09/30 10:45:44;;;;;;;6.53;1.13;;;;;;;;;;5072149;28;20403;-80
2023/09/30 10:48:25;;;;;;;7.90;1.20;;;;;;;;;;5072573;28;20407;-79
2023/09/30 10:50:51;;;;;;;5.23;1.30;;;;;;;;;;5084231;28;20557;-79
2023/09/30 10:53:18;;;;;;;6.90;1.30;;;;;;;;;;5092989;28;20498;-79
2023/09/30 10:55:47;;;;;;;4.03;1.07;;;;;;;;;;5092681;28;20172;-79
2023/09/30 10:58:14;;;;;;;6.07;1.00;;;;;;;;;;5092836;28;20458;-80
2023/09/30 11:00:43;;;;;;;7.13;1.33;;;;;;;;;;5092448;28;20410;-81
2023/09/30 11:03:12;;;;;;;8.17;1.07;;;;;;;;;;5092845;28;20424;-79
2023/09/30 11:05:38;;;;;;;5.10;1.23;;;;;;;;;;5092845;28;20407;-80
2023/09/30 11:08:05;;;;;;;4.20;1.30;;;;;;;;;;5092832;28;20778;-79
2023/09/30 11:10:36;;;;;;;6.00;1.60;;;;;;;;;;5092549;28;20969;-79
2023/09/30 11:13:03;;;;;;;6.50;1.50;;;;;;;;;;5096148;28;20473;-79
2023/09/30 11:15:29;;;;;;;6.90;1.70;;;;;;;;;;5096475;28;20425;-79
2023/09/30 11:18:12;;;;;;;4.73;2.00;;;;;;;;;;5095509;28;20407;-80
2023/09/30 11:20:38;;;;;;;4.50;1.50;;;;;;;;;;5076620;28;20191;-79
2023/09/30 11:23:04;;;;;;;3.27;0.80;;;;;;;;;;5076073;28;20950;-79
2023/09/30 11:25:35;;;;;;;6.30;1.27;;;;;;;;;;5090907;28;20422;-79
2023/09/30 11:28:19;;;;;;;6.83;0.67;;;;;;;;;;5078053;28;20181;-79
2023/09/30 11:30:58;;;;;;;4.53;0.77;;;;;;;;;;5075923;28;20461;-79
2023/09/30 11:33:24;;;;;;;4.93;1.57;;;;;;;;;;5076150;28;20859;-78
2023/09/30 11:36:00;;;;;;;6.43;1.20;;;;;;;;;;5075918;28;20466;-78
2023/09/30 11:38:26;;;;;;;3.33;0.80;;;;;;;;;;5076241;28;20447;-78
2023/09/30 11:41:00;;;;;;;4.27;1.73;;;;;;;;;;5076157;28;20907;-79
2023/09/30 11:43:25;;;;;;;5.90;1.73;;;;;;;;;;5076119;28;20169;-80
2023/09/30 11:45:51;;;;;;;5.20;0.93;;;;;;;;;;5071977;28;20867;-78
2023/09/30 11:48:21;;;;;;;5.13;0.90;;;;;;;;;;5075718;28;20185;-78
2023/09/30 11:50:48;;;;;;;4.60;1.00;;;;;;;;;;5075867;28;20586;-79
2023/09/30 11:53:20;;;;;;;7.27;1.30;;;;;;;;;;5075924;28;20414;-79
2023/09/30 11:55:46;;;;;;;4.90;1.20;;;;;;;;;;5075854;28;20465;-79
2023/09/30 11:58:18;;;;;;;4.93;0.77;;;;;;;;;;5075769;28;20884;-80
2023/09/30 12:00:44;;;;;;;2.90;0.53;;;;;;;;;;5075603;28;20168;-79
2023/09/30 12:03:10;;;;;;;5.53;1.10;;;;;;;;;;5075518;28;20421;-81
2023/09/30 12:05:36;;;;;;;3.03;0.70;;;;;;;;;;5075601;28;20708;-80
2023/09/30 12:08:02;;;;;;;4.23;0.70;;;;;;;;;;5075692;28;20546;-80
2023/09/30 12:10:28;;;;;;;4.03;0.90;;;;;;;;;;5075288;28;20809;-80
2023/09/30 12:12:54;;;;;;;3.83;1.03;;;;;;;;;;5075682;28;20412;-79
2023/09/30 12:15:22;;;;;;;5.40;0.83;;;;;;;;;;5075302;28;20206;-78
2023/09/30 12:17:48;;;;;;;3.67;0.97;;;;;;;;;;5075433;28;20188;-78
2023/09/30 12:20:17;;;;;;;4.50;0.90;;;;;;;;;;5075455;28;20407;-78
2023/09/30 12:22:43;;;;;;;6.40;1.07;;;;;;;;;;5075099;28;20173;-79
2023/09/30 12:25:09;;;;;;;5.60;0.97;;;;;;;;;;5075498;28;20417;-79
2023/09/30 12:27:35;;;;;;;4.53;0.47;;;;;;;;;;5075207;28;20187;-79
2023/09/30 12:30:04;;;;;;;3.70;0.73;;;;;;;;;;5074886;28;20204;-79
2023/09/30 12:32:33;;;;;;;3.63;0.70;;;;;;;;;;5075151;28;20661;-84
2023/09/30 12:34:59;;;;;;;4.97;1.27;;;;;;;;;;5075235;28;20521;-86
2023/09/30 12:37:25;;;;;;;5.43;0.67;;;;;;;;;;5075122;28;20472;-79
2023/09/30 12:39:52;;;;;;;4.90;0.60;;;;;;;;;;5075017;28;20820;-78
2023/09/30 12:42:18;;;;;;;2.57;0.67;;;;;;;;;;5074324;28;20176;-79
2023/09/30 12:44:44;;;;;;;9.90;1.50;;;;;;;;;;5073966;28;20441;-78
2023/09/30 12:47:10;;;;;;;3.70;0.60;;;;;;;;;;5074671;28;20415;-79
2023/09/30 12:49:36;;;;;;;3.40;0.93;;;;;;;;;;5075065;28;20176;-86
2023/09/30 12:52:02;;;;;;;7.90;1.03;;;;;;;;;;5074862;28;20213;-79
2023/09/30 12:54:28;;;;;;;4.07;0.77;;;;;;;;;;5074507;28;20407;-79
2023/09/30 12:56:54;;;;;;;6.47;0.80;;;;;;;;;;5074942;28;20883;-78
2023/09/30 12:59:24;;;;;;;2.80;0.97;;;;;;;;;;5074482;28;20411;-79
2023/09/30 13:02:13;;;;;;;4.70;1.07;;;;;;;;;;5071814;28;20657;-80
2023/09/30 13:04:43;;;;;;;4.10;0.90;;;;;;;;;;5062849;28;20415;-84
2023/09/30 13:07:10;;;;;;;7.60;1.27;;;;;;;;;;5065429;28;20393;-82
2023/09/30 13:09:36;;;;;;;3.83;1.03;;;;;;;;;;5063459;28;20412;-81
2023/09/30 13:12:02;;;;;;;3.77;0.93;;;;;;;;;;5063823;28;20467;-81
2023/09/30 13:14:28;;;;;;;3.37;1.13;;;;;;;;;;5064759;28;20474;-85
2023/09/30 13:16:54;;;;;;;6.17;1.37;;;;;;;;;;5066020;28;20422;-86
2023/09/30 13:19:24;;;;;;;8.00;1.37;;;;;;;;;;5065316;28;20179;-78
2023/09/30 13:21:50;;;;;;;5.27;0.97;;;;;;;;;;5072856;28;20790;-84
2023/09/30 13:24:16;;;;;;;5.27;0.80;;;;;;;;;;5064615;28;20473;-82
2023/09/30 13:26:42;;;;;;;6.83;1.03;;;;;;;;;;5064950;28;20413;-84
2023/09/30 13:29:12;;;;;;;4.13;1.03;;;;;;;;;;5064402;28;20406;-81
2023/09/30 13:31:38;;;;;;;4.07;0.53;;;;;;;;;;5065624;28;20206;-78
2023/09/30 13:34:05;;;;;;;2.80;0.50;;;;;;;;;;5070131;28;20422;-79
2023/09/30 13:36:31;;;;;;;4.70;1.10;;;;;;;;;;5064861;28;20416;-81
2023/09/30 13:39:00;;;;;;;5.77;1.07;;;;;;;;;;5063139;28;20483;-83
2023/09/30 13:41:27;;;;;;;6.40;0.77;;;;;;;;;;5057808;28;20459;-82
2023/09/30 13:43:53;;;;;;;6.70;1.37;;;;;;;;;;5064201;28;20417;-80
2023/09/30 13:46:21;;;;;;;5.67;0.90;;;;;;;;;;5062985;28;20769;-80
2023/09/30 13:48:51;;;;;;;3.57;0.50;;;;;;;;;;5062775;28;20501;-78
2023/09/30 13:51:17;;;;;;;3.80;0.40;;;;;;;;;;5065390;28;20827;-82
2023/09/30 13:53:43;;;;;;;5.10;0.90;;;;;;;;;;5063342;28;20410;-80
2023/09/30 13:56:10;;;;;;;4.80;1.10;;;;;;;;;;5064139;28;20180;-79
2023/09/30 13:58:36;;;;;;;3.10;0.73;;;;;;;;;;5064529;28;20407;-78
2023/09/30 14:01:02;;;;;;;4.63;1.00;;;;;;;;;;5063011;28;20473;-78
2023/09/30 14:03:29;;;;;;;7.43;1.73;;;;;;;;;;5063818;28;20454;-79
2023/09/30 14:05:56;;;;;;;5.00;0.83;;;;;;;;;;5061097;28;20564;-81
2023/09/30 14:08:22;;;;;;;4.00;0.60;;;;;;;;;;5065148;28;20829;-79
2023/09/30 14:10:51;;;;;;;5.87;0.73;;;;;;;;;;5063471;28;20876;-79
2023/09/30 14:13:18;;;;;;;4.60;0.70;;;;;;;;;;5069623;28;20417;-79
2023/09/30 14:15:44;;;;;;;6.37;0.50;;;;;;;;;;5064297;28;20411;-80
2023/09/30 14:18:10;;;;;;;7.07;1.17;;;;;;;;;;5062299;28;20395;-79
2023/09/30 14:20:36;;;;;;;6.50;1.33;;;;;;;;;;5062192;28;20622;-78
2023/09/30 14:23:02;;;;;;;5.53;0.70;;;;;;;;;;5061874;28;20169;-78
2023/09/30 14:25:28;;;;;;;4.60;0.97;;;;;;;;;;5061924;28;20186;-79
2023/09/30 14:27:54;;;;;;;4.90;0.80;;;;;;;;;;5063839;28;20405;-81
2023/09/30 14:30:20;;;;;;;5.40;0.80;;;;;;;;;;5063602;28;20421;-78
2023/09/30 14:32:46;;;;;;;7.20;0.90;;;;;;;;;;5063256;28;20472;-79
2023/09/30 14:35:12;;;;;;;9.10;1.27;;;;;;;;;;5061349;28;20408;-77
2023/09/30 14:37:38;;;;;;;4.47;0.97;;;;;;;;;;5061860;28;20462;-78
2023/09/30 14:40:05;;;;;;;3.80;0.40;;;;;;;;;;5060939;28;20441;-78